sensor_id;sensor_type;location;lat;lon;timestamp;pressure;altitude;pressure_sealevel;temperature;humidity
38054;BME280;23859;50.672;7.164;2023-02-22T00:00:38;100655.03;;;6.52;100.00
38054;BME280;23859;50.672;7.164;2023-02-22T00:03:25;100665.59;;;6.52;100.00
38054;BME280;23859;50.672;7.164;2023-02-22T00:05:56;100652.72;;;6.60;100.00
38054;BME280;23859;50.672;7.164;2023-02-22T00:08:29;100540.06;;;6.01;100.00
38054;BME280;23859;50.672;7.164;2023-02-22T00:10:59;100642.38;;;6.80;100.00
38054;BME280;23859;50.672;7.164;2023-02-22T00:13:27;100642.72;;;6.75;100.00
38054;BME280;23859;50.672;7.164;2023-02-22T00:15:54;100634.06;;;6.73;100.00
38054;BME280;23859;50.672;7.164;2023-02-22T00:18:21;100641.25;;;6.71;100.00
38054;BME280;23859;50.672;7.164;2023-02-22T00:20:47;100640.78;;;6.77;100.00
38054;BME280;23859;50.672;7.164;2023-02-22T00:23:18;100630.69;;;6.71;100.00
38054;BME280;23859;50.672;7.164;2023-02-22T00:25:49;100631.38;;;6.86;100.00
38054;BME280;23859;50.672;7.164;2023-02-22T00:28:17;100625.19;;;6.74;100.00
38054;BME280;23859;50.672;7.164;2023-02-22T00:30:44;100627.44;;;6.68;100.00
38054;BME280;23859;50.672;7.164;2023-02-22T00:33:12;100621.09;;;6.70;100.00
38054;BME280;23859;50.672;7.164;2023-02-22T00:35:39;100625.63;;;6.68;100.00
38054;BME280;23859;50.672;7.164;2023-02-22T00:38:05;100614.81;;;6.84;100.00
38054;BME280;23859;50.672;7.164;2023-02-22T00:40:33;100619.91;;;6.74;100.00
38054;BME280;23859;50.672;7.164;2023-02-22T00:43:02;100610.59;;;6.81;100.00
38054;BME280;23859;50.672;7.164;2023-02-22T00:45:30;100611.31;;;6.83;100.00
38054;BME280;23859;50.672;7.164;2023-02-22T00:47:57;100610.19;;;6.75;100.00
38054;BME280;23859;50.672;7.164;2023-02-22T00:50:24;100607.44;;;6.76;100.00
38054;BME280;23859;50.672;7.164;2023-02-22T00:52:52;100598.78;;;6.74;100.00
38054;BME280;23859;50.672;7.164;2023-02-22T00:55:21;100598.03;;;6.72;100.00
38054;BME280;23859;50.672;7.164;2023-02-22T00:57:48;100602.81;;;6.67;100.00
38054;BME280;23859;50.672;7.164;2023-02-22T01:00:39;100594.41;;;6.62;100.00
38054;BME280;23859;50.672;7.164;2023-02-22T01:03:08;100598.03;;;6.49;100.00
38054;BME280;23859;50.672;7.164;2023-02-22T01:05:35;100593.00;;;6.46;100.00
38054;BME280;23859;50.672;7.164;2023-02-22T01:08:03;100588.13;;;6.53;100.00
38054;BME280;23859;50.672;7.164;2023-02-22T01:10:32;100586.16;;;6.44;100.00
38054;BME280;23859;50.672;7.164;2023-02-22T01:12:59;100585.09;;;6.46;100.00
38054;BME280;23859;50.672;7.164;2023-02-22T01:15:28;100580.13;;;6.42;100.00
38054;BME280;23859;50.672;7.164;2023-02-22T01:17:55;100584.13;;;6.47;100.00
38054;BME280;23859;50.672;7.164;2023-02-22T01:20:23;100577.88;;;6.48;100.00
38054;BME280;23859;50.672;7.164;2023-02-22T01:22:52;100574.16;;;6.63;100.00
38054;BME280;23859;50.672;7.164;2023-02-22T01:25:21;100572.94;;;6.44;100.00
38054;BME280;23859;50.672;7.164;2023-02-22T01:27:48;100573.16;;;6.41;100.00
38054;BME280;23859;50.672;7.164;2023-02-22T01:30:16;100572.44;;;6.39;100.00
38054;BME280;23859;50.672;7.164;2023-02-22T01:32:43;100574.84;;;6.42;100.00
38054;BME280;23859;50.672;7.164;2023-02-22T01:35:13;100570.25;;;6.33;100.00
38054;BME280;23859;50.672;7.164;2023-02-22T01:37:40;100575.03;;;6.28;100.00
38054;BME280;23859;50.672;7.164;2023-02-22T01:40:09;100564.97;;;6.33;100.00
38054;BME280;23859;50.672;7.164;2023-02-22T01:42:35;100565.72;;;6.22;100.00
38054;BME280;23859;50.672;7.164;2023-02-22T01:51:11;100555.25;;;6.33;100.00
38054;BME280;23859;50.672;7.164;2023-02-22T01:59:21;100559.06;;;6.29;100.00
38054;BME280;23859;50.672;7.164;2023-02-22T02:01:48;100551.53;;;6.12;100.00
38054;BME280;23859;50.672;7.164;2023-02-22T02:04:21;100550.19;;;6.07;100.00
38054;BME280;23859;50.672;7.164;2023-02-22T02:06:54;100554.91;;;6.02;100.00
38054;BME280;23859;50.672;7.164;2023-02-22T02:09:39;100550.09;;;5.96;100.00
38054;BME280;23859;50.672;7.164;2023-02-22T02:12:08;100554.75;;;5.93;100.00
38054;BME280;23859;50.672;7.164;2023-02-22T02:14:35;100557.56;;;5.90;100.00
38054;BME280;23859;50.672;7.164;2023-02-22T02:17:09;100550.03;;;5.85;100.00
38054;BME280;23859;50.672;7.164;2023-02-22T02:19:50;100544.00;;;5.83;100.00
38054;BME280;23859;50.672;7.164;2023-02-22T02:36:30;100527.34;;;5.83;100.00
38054;BME280;23859;50.672;7.164;2023-02-22T02:39:19;100536.09;;;5.83;100.00
38054;BME280;23859;50.672;7.164;2023-02-22T02:41:50;100525.19;;;5.75;100.00
38054;BME280;23859;50.672;7.164;2023-02-22T02:44:27;100524.81;;;5.56;100.00
38054;BME280;23859;50.672;7.164;2023-02-22T02:47:13;100532.19;;;5.51;100.00
38054;BME280;23859;50.672;7.164;2023-02-22T02:50:17;100532.81;;;5.80;100.00
38054;BME280;23859;50.672;7.164;2023-02-22T02:52:43;100535.97;;;5.72;100.00
38054;BME280;23859;50.672;7.164;2023-02-22T02:55:10;100531.44;;;5.49;100.00
38054;BME280;23859;50.672;7.164;2023-02-22T02:57:38;100533.25;;;5.49;100.00
38054;BME280;23859;50.672;7.164;2023-02-22T03:00:06;100524.59;;;5.59;100.00
38054;BME280;23859;50.672;7.164;2023-02-22T03:05:51;100528.63;;;5.40;100.00
38054;BME280;23859;50.672;7.164;2023-02-22T03:11:17;100540.84;;;5.28;100.00
38054;BME280;23859;50.672;7.164;2023-02-22T03:14:06;100523.75;;;5.22;100.00
38054;BME280;23859;50.672;7.164;2023-02-22T03:19:26;100524.41;;;5.25;100.00
38054;BME280;23859;50.672;7.164;2023-02-22T03:22:14;100524.75;;;5.21;100.00
38054;BME280;23859;50.672;7.164;2023-02-22T03:24:54;100525.03;;;5.16;100.00
38054;BME280;23859;50.672;7.164;2023-02-22T03:27:39;100520.81;;;5.14;100.00
38054;BME280;23859;50.672;7.164;2023-02-22T03:30:33;100520.28;;;5.09;100.00
38054;BME280;23859;50.672;7.164;2023-02-22T03:33:09;100528.38;;;5.06;100.00
38054;BME280;23859;50.672;7.164;2023-02-22T03:35:40;100518.59;;;5.20;100.00
38054;BME280;23859;50.672;7.164;2023-02-22T03:38:10;100529.66;;;5.00;100.00
38054;BME280;23859;50.672;7.164;2023-02-22T03:40:42;100522.09;;;5.08;100.00
38054;BME280;23859;50.672;7.164;2023-02-22T03:43:14;100518.50;;;4.97;100.00
38054;BME280;23859;50.672;7.164;2023-02-22T03:45:44;100526.69;;;4.92;100.00
38054;BME280;23859;50.672;7.164;2023-02-22T03:51:19;100518.88;;;4.78;100.00
38054;BME280;23859;50.672;7.164;2023-02-22T03:53:45;100524.97;;;4.79;100.00
38054;BME280;23859;50.672;7.164;2023-02-22T03:56:24;100524.03;;;4.80;100.00
38054;BME280;23859;50.672;7.164;2023-02-22T03:58:53;100520.28;;;4.84;100.00
38054;BME280;23859;50.672;7.164;2023-02-22T04:01:20;100520.63;;;4.65;100.00
38054;BME280;23859;50.672;7.164;2023-02-22T04:03:48;100512.38;;;4.84;100.00
38054;BME280;23859;50.672;7.164;2023-02-22T04:06:14;100517.53;;;4.85;100.00
38054;BME280;23859;50.672;7.164;2023-02-22T04:08:40;100511.94;;;4.90;100.00
38054;BME280;23859;50.672;7.164;2023-02-22T04:11:08;100520.41;;;4.95;100.00
38054;BME280;23859;50.672;7.164;2023-02-22T04:13:34;100512.50;;;5.07;100.00
38054;BME280;23859;50.672;7.164;2023-02-22T04:16:00;100513.34;;;5.08;100.00
38054;BME280;23859;50.672;7.164;2023-02-22T04:18:26;100519.53;;;5.19;100.00
38054;BME280;23859;50.672;7.164;2023-02-22T04:20:53;100508.81;;;5.10;100.00
38054;BME280;23859;50.672;7.164;2023-02-22T04:23:20;100504.91;;;5.15;100.00
38054;BME280;23859;50.672;7.164;2023-02-22T04:25:46;100501.03;;;5.21;100.00
38054;BME280;23859;50.672;7.164;2023-02-22T04:28:12;100508.81;;;5.10;100.00
38054;BME280;23859;50.672;7.164;2023-02-22T04:30:38;100503.56;;;5.10;100.00
38054;BME280;23859;50.672;7.164;2023-02-22T04:33:04;100497.44;;;5.22;100.00
38054;BME280;23859;50.672;7.164;2023-02-22T04:35:30;100496.72;;;5.20;100.00
38054;BME280;23859;50.672;7.164;2023-02-22T04:37:56;100497.25;;;5.12;100.00
38054;BME280;23859;50.672;7.164;2023-02-22T04:40:23;100499.66;;;5.03;100.00
38054;BME280;23859;50.672;7.164;2023-02-22T04:42:49;100491.75;;;5.03;100.00
38054;BME280;23859;50.672;7.164;2023-02-22T04:45:15;100486.91;;;5.09;100.00
38054;BME280;23859;50.672;7.164;2023-02-22T04:47:41;100490.06;;;5.02;100.00
38054;BME280;23859;50.672;7.164;2023-02-22T04:50:10;100489.66;;;4.95;100.00
38054;BME280;23859;50.672;7.164;2023-02-22T04:52:36;100489.53;;;4.97;100.00
38054;BME280;23859;50.672;7.164;2023-02-22T04:55:03;100492.59;;;5.16;100.00
38054;BME280;23859;50.672;7.164;2023-02-22T04:57:29;100497.25;;;5.12;100.00
38054;BME280;23859;50.672;7.164;2023-02-22T04:59:56;100494.28;;;5.17;100.00
38054;BME280;23859;50.672;7.164;2023-02-22T05:02:22;100487.94;;;5.19;100.00
38054;BME280;23859;50.672;7.164;2023-02-22T05:04:48;100499.75;;;5.01;100.00
38054;BME280;23859;50.672;7.164;2023-02-22T05:07:14;100490.88;;;4.90;100.00
38054;BME280;23859;50.672;7.164;2023-02-22T05:09:40;100489.00;;;5.04;100.00
38054;BME280;23859;50.672;7.164;2023-02-22T05:12:06;100482.91;;;4.91;100.00
38054;BME280;23859;50.672;7.164;2023-02-22T05:14:32;100490.69;;;4.93;100.00
38054;BME280;23859;50.672;7.164;2023-02-22T05:16:58;100486.38;;;4.79;100.00
38054;BME280;23859;50.672;7.164;2023-02-22T05:19:25;100481.53;;;4.86;100.00
38054;BME280;23859;50.672;7.164;2023-02-22T05:21:51;100480.81;;;4.84;100.00
38054;BME280;23859;50.672;7.164;2023-02-22T05:24:17;100484.66;;;4.78;100.00
38054;BME280;23859;50.672;7.164;2023-02-22T05:26:44;100478.06;;;4.85;100.00
38054;BME280;23859;50.672;7.164;2023-02-22T05:29:11;100478.34;;;4.81;100.00
38054;BME280;23859;50.672;7.164;2023-02-22T05:31:37;100478.28;;;4.95;100.00
38054;BME280;23859;50.672;7.164;2023-02-22T05:34:04;100473.44;;;4.89;100.00
38054;BME280;23859;50.672;7.164;2023-02-22T05:36:30;100476.66;;;4.80;100.00
38054;BME280;23859;50.672;7.164;2023-02-22T05:38:56;100474.78;;;4.82;100.00
38054;BME280;23859;50.672;7.164;2023-02-22T05:41:22;100473.22;;;4.92;100.00
38054;BME280;23859;50.672;7.164;2023-02-22T05:43:48;100463.63;;;4.91;100.00
38054;BME280;23859;50.672;7.164;2023-02-22T05:46:14;100462.03;;;4.88;100.00
38054;BME280;23859;50.672;7.164;2023-02-22T05:48:40;100464.38;;;4.93;100.00
38054;BME280;23859;50.672;7.164;2023-02-22T05:51:06;100464.78;;;4.87;100.00
38054;BME280;23859;50.672;7.164;2023-02-22T05:53:34;100459.75;;;4.84;100.00
38054;BME280;23859;50.672;7.164;2023-02-22T05:56:01;100450.88;;;4.85;100.00
38054;BME280;23859;50.672;7.164;2023-02-22T05:58:27;100447.94;;;4.77;100.00
38054;BME280;23859;50.672;7.164;2023-02-22T06:00:53;100454.44;;;4.71;100.00
38054;BME280;23859;50.672;7.164;2023-02-22T06:03:19;100452.34;;;4.76;100.00
38054;BME280;23859;50.672;7.164;2023-02-22T06:05:45;100445.72;;;4.96;100.00
38054;BME280;23859;50.672;7.164;2023-02-22T06:08:11;100446.78;;;4.93;100.00
38054;BME280;23859;50.672;7.164;2023-02-22T06:10:37;100451.09;;;4.94;100.00
38054;BME280;23859;50.672;7.164;2023-02-22T06:13:05;100441.63;;;4.92;100.00
38054;BME280;23859;50.672;7.164;2023-02-22T06:15:31;100450.28;;;4.94;100.00
38054;BME280;23859;50.672;7.164;2023-02-22T06:17:58;100441.84;;;4.89;100.00
38054;BME280;23859;50.672;7.164;2023-02-22T06:20:26;100444.16;;;4.81;100.00
38054;BME280;23859;50.672;7.164;2023-02-22T06:22:54;100447.72;;;4.80;100.00
38054;BME280;23859;50.672;7.164;2023-02-22T06:25:24;100448.59;;;4.80;100.00
38054;BME280;23859;50.672;7.164;2023-02-22T06:27:50;100437.31;;;4.78;100.00
38054;BME280;23859;50.672;7.164;2023-02-22T06:30:18;100440.28;;;4.86;100.00
38054;BME280;23859;50.672;7.164;2023-02-22T06:32:45;100439.28;;;4.87;100.00
38054;BME280;23859;50.672;7.164;2023-02-22T06:35:11;100435.63;;;4.90;100.00
38054;BME280;23859;50.672;7.164;2023-02-22T06:37:38;100439.94;;;4.78;100.00
38054;BME280;23859;50.672;7.164;2023-02-22T06:40:05;100444.69;;;4.86;100.00
38054;BME280;23859;50.672;7.164;2023-02-22T06:42:31;100442.47;;;4.92;100.00
38054;BME280;23859;50.672;7.164;2023-02-22T06:44:57;100442.25;;;4.95;100.00
38054;BME280;23859;50.672;7.164;2023-02-22T06:47:23;100447.84;;;4.91;100.00
38054;BME280;23859;50.672;7.164;2023-02-22T06:49:54;100441.31;;;4.84;100.00
38054;BME280;23859;50.672;7.164;2023-02-22T06:52:20;100439.28;;;4.87;100.00
38054;BME280;23859;50.672;7.164;2023-02-22T06:54:47;100443.19;;;4.94;100.00
38054;BME280;23859;50.672;7.164;2023-02-22T06:57:13;100447.13;;;4.89;100.00
38054;BME280;23859;50.672;7.164;2023-02-22T06:59:40;100450.69;;;4.88;100.00
38054;BME280;23859;50.672;7.164;2023-02-22T07:02:06;100452.47;;;4.87;100.00
38054;BME280;23859;50.672;7.164;2023-02-22T07:04:32;100451.22;;;4.93;100.00
38054;BME280;23859;50.672;7.164;2023-02-22T07:06:58;100455.63;;;4.92;100.00
38054;BME280;23859;50.672;7.164;2023-02-22T07:09:24;100460.81;;;4.94;100.00
38054;BME280;23859;50.672;7.164;2023-02-22T07:11:50;100455.31;;;4.97;100.00
38054;BME280;23859;50.672;7.164;2023-02-22T07:14:17;100456.59;;;5.04;100.00
38054;BME280;23859;50.672;7.164;2023-02-22T07:16:43;100459.06;;;5.30;100.00
38054;BME280;23859;50.672;7.164;2023-02-22T07:19:09;100452.75;;;5.32;100.00
38054;BME280;23859;50.672;7.164;2023-02-22T07:21:35;100451.38;;;5.39;100.00
38054;BME280;23859;50.672;7.164;2023-02-22T07:24:01;100451.06;;;5.44;100.00
38054;BME280;23859;50.672;7.164;2023-02-22T07:26:27;100447.06;;;5.38;100.00
38054;BME280;23859;50.672;7.164;2023-02-22T07:28:53;100450.78;;;5.24;100.00
38054;BME280;23859;50.672;7.164;2023-02-22T07:31:19;100455.75;;;5.16;100.00
38054;BME280;23859;50.672;7.164;2023-02-22T07:33:46;100455.72;;;5.40;100.00
38054;BME280;23859;50.672;7.164;2023-02-22T07:36:14;100448.56;;;5.42;100.00
38054;BME280;23859;50.672;7.164;2023-02-22T07:38:43;100452.31;;;5.38;100.00
38054;BME280;23859;50.672;7.164;2023-02-22T07:41:10;100448.56;;;5.42;100.00
38054;BME280;23859;50.672;7.164;2023-02-22T07:43:36;100455.91;;;5.50;100.00
38054;BME280;23859;50.672;7.164;2023-02-22T07:46:02;100451.56;;;5.61;100.00
38054;BME280;23859;50.672;7.164;2023-02-22T07:48:30;100441.53;;;5.66;100.00
38054;BME280;23859;50.672;7.164;2023-02-22T07:50:57;100452.28;;;5.76;100.00
38054;BME280;23859;50.672;7.164;2023-02-22T07:53:28;100450.09;;;5.93;100.00
38054;BME280;23859;50.672;7.164;2023-02-22T07:55:56;100450.28;;;5.79;100.00
38054;BME280;23859;50.672;7.164;2023-02-22T07:58:24;100436.88;;;5.82;100.00
38054;BME280;23859;50.672;7.164;2023-02-22T08:00:50;100444.66;;;5.84;100.00
38054;BME280;23859;50.672;7.164;2023-02-22T08:03:18;100440.00;;;5.87;100.00
38054;BME280;23859;50.672;7.164;2023-02-22T08:05:48;100442.31;;;5.92;100.00
38054;BME280;23859;50.672;7.164;2023-02-22T08:08:15;100443.72;;;6.08;100.00
38054;BME280;23859;50.672;7.164;2023-02-22T08:10:41;100442.88;;;6.07;100.00
38054;BME280;23859;50.672;7.164;2023-02-22T08:13:08;100435.41;;;6.25;100.00
38054;BME280;23859;50.672;7.164;2023-02-22T08:15:38;100434.94;;;6.31;100.00
38054;BME280;23859;50.672;7.164;2023-02-22T08:18:07;100429.84;;;6.40;100.00
38054;BME280;23859;50.672;7.164;2023-02-22T08:20:35;100422.75;;;6.41;100.00
38054;BME280;23859;50.672;7.164;2023-02-22T08:23:01;100411.78;;;6.58;100.00
38054;BME280;23859;50.672;7.164;2023-02-22T08:25:28;100415.41;;;6.67;100.00
38054;BME280;23859;50.672;7.164;2023-02-22T08:28:06;100408.81;;;6.73;100.00
38054;BME280;23859;50.672;7.164;2023-02-22T08:30:34;100407.16;;;6.83;100.00
38054;BME280;23859;50.672;7.164;2023-02-22T08:33:02;100398.03;;;6.87;100.00
38054;BME280;23859;50.672;7.164;2023-02-22T08:35:29;100405.63;;;7.13;100.00
38054;BME280;23859;50.672;7.164;2023-02-22T08:37:59;100397.22;;;7.30;100.00
38054;BME280;23859;50.672;7.164;2023-02-22T08:40:27;100401.28;;;7.45;100.00
38054;BME280;23859;50.672;7.164;2023-02-22T08:42:54;100397.56;;;7.47;100.00
38054;BME280;23859;50.672;7.164;2023-02-22T08:45:20;100396.22;;;7.42;100.00
38054;BME280;23859;50.672;7.164;2023-02-22T08:47:46;100399.09;;;7.72;100.00
38054;BME280;23859;50.672;7.164;2023-02-22T08:50:21;100395.94;;;7.78;100.00
38054;BME280;23859;50.672;7.164;2023-02-22T08:52:49;100392.53;;;7.87;100.00
38054;BME280;23859;50.672;7.164;2023-02-22T08:55:19;100401.41;;;7.96;100.00
38054;BME280;23859;50.672;7.164;2023-02-22T08:57:45;100394.38;;;8.17;100.00
38054;BME280;23859;50.672;7.164;2023-02-22T09:00:12;100391.69;;;8.28;100.00
38054;BME280;23859;50.672;7.164;2023-02-22T09:02:38;100386.47;;;8.38;100.00
38054;BME280;23859;50.672;7.164;2023-02-22T09:05:04;100383.91;;;8.47;100.00
38054;BME280;23859;50.672;7.164;2023-02-22T09:07:31;100389.66;;;8.52;100.00
38054;BME280;23859;50.672;7.164;2023-02-22T09:09:58;100378.78;;;8.96;100.00
38054;BME280;23859;50.672;7.164;2023-02-22T09:12:24;100373.13;;;9.10;100.00
38054;BME280;23859;50.672;7.164;2023-02-22T09:14:50;100372.13;;;9.40;99.01
38054;BME280;23859;50.672;7.164;2023-02-22T09:17:16;100377.16;;;9.53;97.28
38054;BME280;23859;50.672;7.164;2023-02-22T09:19:42;100373.59;;;9.82;95.25
38054;BME280;23859;50.672;7.164;2023-02-22T09:22:10;100374.53;;;10.11;94.17
38054;BME280;23859;50.672;7.164;2023-02-22T09:24:36;100358.00;;;10.64;89.83
38054;BME280;23859;50.672;7.164;2023-02-22T09:27:02;100355.97;;;10.85;89.64
38054;BME280;23859;50.672;7.164;2023-02-22T09:29:29;100358.00;;;11.00;86.82
38054;BME280;23859;50.672;7.164;2023-02-22T09:31:56;100357.34;;;10.98;87.85
38054;BME280;23859;50.672;7.164;2023-02-22T09:34:23;100351.47;;;11.31;84.69
38054;BME280;23859;50.672;7.164;2023-02-22T09:36:55;100352.81;;;11.71;83.77
38054;BME280;23859;50.672;7.164;2023-02-22T09:39:22;100350.41;;;12.30;81.79
38054;BME280;23859;50.672;7.164;2023-02-22T09:47:42;100345.16;;;11.32;83.32
38054;BME280;23859;50.672;7.164;2023-02-22T09:50:13;100345.34;;;11.48;83.18
38054;BME280;23859;50.672;7.164;2023-02-22T09:55:27;100334.31;;;11.70;83.65
38054;BME280;23859;50.672;7.164;2023-02-22T09:57:57;100338.00;;;11.86;81.74
38054;BME280;23859;50.672;7.164;2023-02-22T10:00:30;100337.06;;;12.12;80.68
38054;BME280;23859;50.672;7.164;2023-02-22T10:08:31;100265.19;;;12.38;75.47
38054;BME280;23859;50.672;7.164;2023-02-22T10:11:20;100337.25;;;12.96;74.60
38054;BME280;23859;50.672;7.164;2023-02-22T10:19:49;100336.00;;;15.02;66.64
38054;BME280;23859;50.672;7.164;2023-02-22T10:22:56;100345.56;;;14.64;66.31
38054;BME280;23859;50.672;7.164;2023-02-22T10:25:28;100344.84;;;15.02;64.45
38054;BME280;23859;50.672;7.164;2023-02-22T10:28:10;100341.56;;;14.84;65.26
38054;BME280;23859;50.672;7.164;2023-02-22T10:30:42;100341.22;;;14.63;64.90
38054;BME280;23859;50.672;7.164;2023-02-22T10:35:38;100338.78;;;13.81;67.42
38054;BME280;23859;50.672;7.164;2023-02-22T10:40:39;100340.78;;;13.79;68.71
38054;BME280;23859;50.672;7.164;2023-02-22T10:43:09;100331.56;;;14.31;66.65
38054;BME280;23859;50.672;7.164;2023-02-22T10:45:36;100331.22;;;14.50;65.17
38054;BME280;23859;50.672;7.164;2023-02-22T10:48:11;100326.03;;;14.24;66.38
38054;BME280;23859;50.672;7.164;2023-02-22T10:50:41;100325.47;;;14.05;66.96
38054;BME280;23859;50.672;7.164;2023-02-22T10:53:08;100332.81;;;13.87;68.16
38054;BME280;23859;50.672;7.164;2023-02-22T10:55:34;100329.06;;;13.72;68.85
38054;BME280;23859;50.672;7.164;2023-02-22T10:58:06;100325.31;;;13.41;69.85
38054;BME280;23859;50.672;7.164;2023-02-22T11:00:35;100322.53;;;13.18;71.34
38054;BME280;23859;50.672;7.164;2023-02-22T11:03:19;100320.47;;;12.78;72.13
38054;BME280;23859;50.672;7.164;2023-02-22T11:05:46;100315.63;;;13.07;71.81
38054;BME280;23859;50.672;7.164;2023-02-22T11:10:48;100305.34;;;12.87;72.75
38054;BME280;23859;50.672;7.164;2023-02-22T11:13:37;100303.94;;;12.75;72.90
38054;BME280;23859;50.672;7.164;2023-02-22T11:16:18;100305.19;;;12.63;74.51
38054;BME280;23859;50.672;7.164;2023-02-22T11:18:46;100311.94;;;13.41;70.36
38054;BME280;23859;50.672;7.164;2023-02-22T11:21:12;100296.19;;;13.64;68.17
38054;BME280;23859;50.672;7.164;2023-02-22T11:23:45;100284.50;;;13.81;67.80
38054;BME280;23859;50.672;7.164;2023-02-22T11:26:14;100283.75;;;14.28;66.43
38054;BME280;23859;50.672;7.164;2023-02-22T11:28:43;100284.34;;;13.66;67.65
38054;BME280;23859;50.672;7.164;2023-02-22T11:31:21;100280.34;;;13.78;67.89
38054;BME280;23859;50.672;7.164;2023-02-22T11:33:53;100283.00;;;13.70;67.98
38054;BME280;23859;50.672;7.164;2023-02-22T11:36:34;100274.69;;;13.81;67.96
38054;BME280;23859;50.672;7.164;2023-02-22T11:39:23;100272.34;;;13.86;66.65
38054;BME280;23859;50.672;7.164;2023-02-22T11:41:51;100265.38;;;14.33;65.27
38054;BME280;23859;50.672;7.164;2023-02-22T11:44:35;100259.03;;;14.34;64.54
38054;BME280;23859;50.672;7.164;2023-02-22T11:47:01;100262.97;;;14.77;63.64
38054;BME280;23859;50.672;7.164;2023-02-22T11:49:36;100258.59;;;14.76;61.86
38054;BME280;23859;50.672;7.164;2023-02-22T11:52:32;100258.06;;;14.89;61.40
38054;BME280;23859;50.672;7.164;2023-02-22T11:55:02;100254.88;;;14.93;60.92
38054;BME280;23859;50.672;7.164;2023-02-22T11:58:00;100252.25;;;15.84;58.93
38054;BME280;23859;50.672;7.164;2023-02-22T12:00:39;100251.03;;;15.87;57.91
38054;BME280;23859;50.672;7.164;2023-02-22T12:09:05;100248.78;;;15.76;58.44
38054;BME280;23859;50.672;7.164;2023-02-22T12:14:43;100250.00;;;15.96;58.40
38054;BME280;23859;50.672;7.164;2023-02-22T12:20:25;100230.22;;;15.97;59.01
38054;BME280;23859;50.672;7.164;2023-02-22T12:25:51;100225.84;;;16.18;58.17
38054;BME280;23859;50.672;7.164;2023-02-22T12:36:34;100224.22;;;15.42;62.26
38054;BME280;23859;50.672;7.164;2023-02-22T12:39:19;100211.63;;;15.50;63.16
38054;BME280;23859;50.672;7.164;2023-02-22T12:41:51;100222.16;;;15.52;61.86
38054;BME280;23859;50.672;7.164;2023-02-22T12:44:27;100219.28;;;15.76;61.21
38054;BME280;23859;50.672;7.164;2023-02-22T12:46:56;100221.63;;;15.18;63.83
38054;BME280;23859;50.672;7.164;2023-02-22T12:49:44;100223.44;;;15.64;62.45
38054;BME280;23859;50.672;7.164;2023-02-22T12:55:06;100219.91;;;16.88;58.61
38054;BME280;23859;50.672;7.164;2023-02-22T13:00:38;100217.69;;;16.48;58.83
38054;BME280;23859;50.672;7.164;2023-02-22T13:03:40;100220.03;;;16.80;58.64
38054;BME280;23859;50.672;7.164;2023-02-22T13:06:19;100211.41;;;16.56;59.09
38054;BME280;23859;50.672;7.164;2023-02-22T13:20:26;100210.41;;;15.83;62.58
38054;BME280;23859;50.672;7.164;2023-02-22T13:23:09;100213.09;;;15.98;63.27
38054;BME280;23859;50.672;7.164;2023-02-22T13:25:44;100215.53;;;15.40;65.58
38054;BME280;23859;50.672;7.164;2023-02-22T13:28:32;100203.69;;;15.34;65.78
38054;BME280;23859;50.672;7.164;2023-02-22T13:34:42;100192.47;;;15.61;65.02
38054;BME280;23859;50.672;7.164;2023-02-22T13:39:29;100189.19;;;16.10;64.08
38054;BME280;23859;50.672;7.164;2023-02-22T13:52:42;100185.78;;;16.82;62.20
38054;BME280;23859;50.672;7.164;2023-02-22T13:55:20;100184.63;;;17.20;60.80
38054;BME280;23859;50.672;7.164;2023-02-22T13:57:48;100188.03;;;17.28;59.30
38054;BME280;23859;50.672;7.164;2023-02-22T14:11:00;100179.69;;;17.58;58.96
38054;BME280;23859;50.672;7.164;2023-02-22T14:13:27;100171.34;;;17.18;60.26
38054;BME280;23859;50.672;7.164;2023-02-22T14:18:26;100163.25;;;17.68;59.08
38054;BME280;23859;50.672;7.164;2023-02-22T14:21:05;100171.16;;;18.17;57.04
38054;BME280;23859;50.672;7.164;2023-02-22T14:23:48;100169.72;;;18.49;56.01
38054;BME280;23859;50.672;7.164;2023-02-22T14:28:53;100165.72;;;18.32;56.62
38054;BME280;23859;50.672;7.164;2023-02-22T14:31:27;100178.56;;;17.67;58.25
38054;BME280;23859;50.672;7.164;2023-02-22T14:33:58;100182.38;;;17.37;60.74
38054;BME280;23859;50.672;7.164;2023-02-22T14:36:30;100172.88;;;17.41;60.12
38054;BME280;23859;50.672;7.164;2023-02-22T14:39:05;100175.25;;;17.16;61.01
38054;BME280;23859;50.672;7.164;2023-02-22T14:41:34;100171.25;;;16.76;62.67
38054;BME280;23859;50.672;7.164;2023-02-22T14:44:03;100179.22;;;16.56;63.52
38054;BME280;23859;50.672;7.164;2023-02-22T14:46:33;100179.19;;;16.41;64.25
38054;BME280;23859;50.672;7.164;2023-02-22T14:49:05;100179.84;;;16.43;63.74
38054;BME280;23859;50.672;7.164;2023-02-22T14:51:41;100181.06;;;16.18;65.21
38054;BME280;23859;50.672;7.164;2023-02-22T14:54:19;100182.75;;;16.19;65.83
38054;BME280;23859;50.672;7.164;2023-02-22T14:57:13;100183.25;;;16.00;66.33
38054;BME280;23859;50.672;7.164;2023-02-22T15:02:20;100172.53;;;15.64;67.60
38054;BME280;23859;50.672;7.164;2023-02-22T15:04:52;100172.63;;;15.48;67.95
38054;BME280;23859;50.672;7.164;2023-02-22T15:07:29;100105.03;;;14.93;68.39
38054;BME280;23859;50.672;7.164;2023-02-22T15:10:18;100180.50;;;15.49;68.63
38054;BME280;23859;50.672;7.164;2023-02-22T15:13:18;100096.03;;;14.86;68.72
38054;BME280;23859;50.672;7.164;2023-02-22T15:15:56;100180.03;;;15.38;69.80
38054;BME280;23859;50.672;7.164;2023-02-22T15:20:54;100187.09;;;15.01;72.01
38054;BME280;23859;50.672;7.164;2023-02-22T15:23:27;100180.19;;;15.06;71.11
38054;BME280;23859;50.672;7.164;2023-02-22T15:25:55;100191.25;;;15.11;70.94
38054;BME280;23859;50.672;7.164;2023-02-22T15:28:24;100183.44;;;14.94;72.38
38054;BME280;23859;50.672;7.164;2023-02-22T15:31:31;100186.34;;;14.84;72.88